sensor_id;sensor_type;location;lat;lon;timestamp;temperature;humidity
12761;DHT22;6444;49.742;6.114;2024-03-02T00:00:23;8.30;99.90
12761;DHT22;6444;49.742;6.114;2024-03-02T00:02:50;8.30;99.90
12761;DHT22;6444;49.742;6.114;2024-03-02T00:05:17;8.00;99.90
12761;DHT22;6444;49.742;6.114;2024-03-02T00:07:43;7.90;99.90
12761;DHT22;6444;49.742;6.114;2024-03-02T00:10:10;7.90;99.90
12761;DHT22;6444;49.742;6.114;2024-03-02T00:12:39;7.90;99.90
12761;DHT22;6444;49.742;6.114;2024-03-02T00:18:05;8.00;99.90
12761;DHT22;6444;49.742;6.114;2024-03-02T00:20:32;7.80;99.90
12761;DHT22;6444;49.742;6.114;2024-03-02T00:23:05;7.60;99.90
12761;DHT22;6444;49.742;6.114;2024-03-02T00:25:44;7.50;99.90
12761;DHT22;6444;49.742;6.114;2024-03-02T00:28:22;7.30;99.90
12761;DHT22;6444;49.742;6.114;2024-03-02T00:31:04;7.50;99.90
12761;DHT22;6444;49.742;6.114;2024-03-02T00:33:34;7.40;99.90
12761;DHT22;6444;49.742;6.114;2024-03-02T00:36:00;7.50;99.90
12761;DHT22;6444;49.742;6.114;2024-03-02T00:38:27;7.40;99.90
12761;DHT22;6444;49.742;6.114;2024-03-02T00:40:54;7.40;99.90
12761;DHT22;6444;49.742;6.114;2024-03-02T00:46:12;7.70;99.90
12761;DHT22;6444;49.742;6.114;2024-03-02T00:48:39;8.00;99.90
12761;DHT22;6444;49.742;6.114;2024-03-02T00:51:05;8.10;99.90
12761;DHT22;6444;49.742;6.114;2024-03-02T00:53:32;8.00;99.90
12761;DHT22;6444;49.742;6.114;2024-03-02T00:56:01;7.90;99.90
12761;DHT22;6444;49.742;6.114;2024-03-02T00:58:27;7.90;99.90
12761;DHT22;6444;49.742;6.114;2024-03-02T01:00:55;8.00;99.90
12761;DHT22;6444;49.742;6.114;2024-03-02T01:03:21;8.00;99.90
12761;DHT22;6444;49.742;6.114;2024-03-02T01:05:48;8.10;99.90
12761;DHT22;6444;49.742;6.114;2024-03-02T01:08:14;8.20;99.90
12761;DHT22;6444;49.742;6.114;2024-03-02T01:10:42;8.20;99.90
12761;DHT22;6444;49.742;6.114;2024-03-02T01:13:08;8.20;99.90
12761;DHT22;6444;49.742;6.114;2024-03-02T01:15:35;8.20;99.90
12761;DHT22;6444;49.742;6.114;2024-03-02T01:18:02;8.50;99.90
12761;DHT22;6444;49.742;6.114;2024-03-02T01:20:29;8.40;99.90
12761;DHT22;6444;49.742;6.114;2024-03-02T01:22:56;8.40;99.90
12761;DHT22;6444;49.742;6.114;2024-03-02T01:25:22;8.50;99.90
12761;DHT22;6444;49.742;6.114;2024-03-02T01:27:49;8.40;99.90
12761;DHT22;6444;49.742;6.114;2024-03-02T01:30:16;8.50;99.90
12761;DHT22;6444;49.742;6.114;2024-03-02T01:32:43;8.40;99.90
12761;DHT22;6444;49.742;6.114;2024-03-02T01:35:10;8.60;99.90
12761;DHT22;6444;49.742;6.114;2024-03-02T01:37:37;8.50;99.90
12761;DHT22;6444;49.742;6.114;2024-03-02T01:40:04;8.50;99.90
12761;DHT22;6444;49.742;6.114;2024-03-02T01:42:31;8.60;99.90
12761;DHT22;6444;49.742;6.114;2024-03-02T01:44:57;8.60;99.90
12761;DHT22;6444;49.742;6.114;2024-03-02T01:47:24;8.70;99.90
12761;DHT22;6444;49.742;6.114;2024-03-02T01:49:50;8.60;99.90
12761;DHT22;6444;49.742;6.114;2024-03-02T01:52:17;8.40;99.90
12761;DHT22;6444;49.742;6.114;2024-03-02T01:54:44;8.40;99.90
12761;DHT22;6444;49.742;6.114;2024-03-02T01:57:11;8.70;99.90
12761;DHT22;6444;49.742;6.114;2024-03-02T01:59:38;8.60;99.90
12761;DHT22;6444;49.742;6.114;2024-03-02T02:02:04;8.90;99.90
12761;DHT22;6444;49.742;6.114;2024-03-02T02:04:31;8.90;99.90
12761;DHT22;6444;49.742;6.114;2024-03-02T02:06:58;9.00;99.90
12761;DHT22;6444;49.742;6.114;2024-03-02T02:09:24;9.00;99.90
12761;DHT22;6444;49.742;6.114;2024-03-02T02:11:51;9.00;99.90
12761;DHT22;6444;49.742;6.114;2024-03-02T02:14:17;9.20;99.90
12761;DHT22;6444;49.742;6.114;2024-03-02T02:16:44;9.50;99.90
12761;DHT22;6444;49.742;6.114;2024-03-02T02:19:12;10.10;99.90
12761;DHT22;6444;49.742;6.114;2024-03-02T02:21:41;10.10;99.90
12761;DHT22;6444;49.742;6.114;2024-03-02T02:24:05;10.00;99.90
12761;DHT22;6444;49.742;6.114;2024-03-02T02:26:32;9.60;99.90
12761;DHT22;6444;49.742;6.114;2024-03-02T02:28:59;9.50;99.90
12761;DHT22;6444;49.742;6.114;2024-03-02T02:31:26;9.90;99.90
12761;DHT22;6444;49.742;6.114;2024-03-02T02:33:52;9.70;99.90
12761;DHT22;6444;49.742;6.114;2024-03-02T02:36:19;9.60;99.90
12761;DHT22;6444;49.742;6.114;2024-03-02T02:38:46;9.50;99.90
12761;DHT22;6444;49.742;6.114;2024-03-02T02:41:13;9.80;99.90
12761;DHT22;6444;49.742;6.114;2024-03-02T02:43:40;9.90;99.90
12761;DHT22;6444;49.742;6.114;2024-03-02T02:46:07;9.90;99.90
12761;DHT22;6444;49.742;6.114;2024-03-02T02:48:33;10.50;99.90
12761;DHT22;6444;49.742;6.114;2024-03-02T02:51:00;11.00;99.90
12761;DHT22;6444;49.742;6.114;2024-03-02T02:53:27;11.10;99.90
12761;DHT22;6444;49.742;6.114;2024-03-02T02:55:54;11.10;99.90
12761;DHT22;6444;49.742;6.114;2024-03-02T02:58:21;10.70;99.90
12761;DHT22;6444;49.742;6.114;2024-03-02T03:00:47;10.60;99.90
12761;DHT22;6444;49.742;6.114;2024-03-02T03:03:14;10.70;99.90
12761;DHT22;6444;49.742;6.114;2024-03-02T03:05:41;9.70;99.90
12761;DHT22;6444;49.742;6.114;2024-03-02T03:08:08;9.60;99.90
12761;DHT22;6444;49.742;6.114;2024-03-02T03:10:34;9.10;99.90
12761;DHT22;6444;49.742;6.114;2024-03-02T03:13:02;8.30;99.90
12761;DHT22;6444;49.742;6.114;2024-03-02T03:15:28;8.20;99.90
12761;DHT22;6444;49.742;6.114;2024-03-02T03:17:55;8.40;99.90
12761;DHT22;6444;49.742;6.114;2024-03-02T03:20:22;8.30;99.90
12761;DHT22;6444;49.742;6.114;2024-03-02T03:22:49;8.50;99.90
12761;DHT22;6444;49.742;6.114;2024-03-02T03:25:16;8.40;99.90
12761;DHT22;6444;49.742;6.114;2024-03-02T03:27:42;8.90;99.90
12761;DHT22;6444;49.742;6.114;2024-03-02T03:30:10;9.50;99.90
12761;DHT22;6444;49.742;6.114;2024-03-02T03:32:37;9.50;99.90
12761;DHT22;6444;49.742;6.114;2024-03-02T03:35:04;9.60;99.90
12761;DHT22;6444;49.742;6.114;2024-03-02T03:37:30;9.00;99.90
12761;DHT22;6444;49.742;6.114;2024-03-02T03:39:57;8.70;99.90
12761;DHT22;6444;49.742;6.114;2024-03-02T03:42:23;8.70;99.90
12761;DHT22;6444;49.742;6.114;2024-03-02T03:44:51;8.20;99.90
12761;DHT22;6444;49.742;6.114;2024-03-02T03:47:17;8.20;99.90
12761;DHT22;6444;49.742;6.114;2024-03-02T03:49:44;8.30;99.90
12761;DHT22;6444;49.742;6.114;2024-03-02T03:52:11;8.20;99.90
12761;DHT22;6444;49.742;6.114;2024-03-02T03:54:38;8.40;99.90
12761;DHT22;6444;49.742;6.114;2024-03-02T03:57:05;8.30;99.90
12761;DHT22;6444;49.742;6.114;2024-03-02T03:59:31;8.30;99.90
12761;DHT22;6444;49.742;6.114;2024-03-02T04:01:59;8.30;99.90
12761;DHT22;6444;49.742;6.114;2024-03-02T04:04:25;8.30;99.90
12761;DHT22;6444;49.742;6.114;2024-03-02T04:06:52;8.00;99.90
12761;DHT22;6444;49.742;6.114;2024-03-02T04:09:19;8.20;99.90
12761;DHT22;6444;49.742;6.114;2024-03-02T04:11:46;8.50;99.90
12761;DHT22;6444;49.742;6.114;2024-03-02T04:14:13;8.50;99.90
12761;DHT22;6444;49.742;6.114;2024-03-02T04:16:39;8.40;99.90
12761;DHT22;6444;49.742;6.114;2024-03-02T04:19:06;8.50;99.90
12761;DHT22;6444;49.742;6.114;2024-03-02T04:21:33;8.50;99.90
12761;DHT22;6444;49.742;6.114;2024-03-02T04:23:59;8.60;99.90
12761;DHT22;6444;49.742;6.114;2024-03-02T04:26:26;8.30;99.90
12761;DHT22;6444;49.742;6.114;2024-03-02T04:28:52;8.30;99.90
12761;DHT22;6444;49.742;6.114;2024-03-02T04:31:20;7.90;99.90
12761;DHT22;6444;49.742;6.114;2024-03-02T04:33:46;7.90;99.90
12761;DHT22;6444;49.742;6.114;2024-03-02T04:36:13;7.70;99.90
12761;DHT22;6444;49.742;6.114;2024-03-02T04:38:40;7.80;99.90
12761;DHT22;6444;49.742;6.114;2024-03-02T04:41:07;7.80;99.90
12761;DHT22;6444;49.742;6.114;2024-03-02T04:43:34;7.70;99.90
12761;DHT22;6444;49.742;6.114;2024-03-02T04:46:01;8.20;99.90
12761;DHT22;6444;49.742;6.114;2024-03-02T04:48:28;8.10;99.90
12761;DHT22;6444;49.742;6.114;2024-03-02T04:50:54;8.10;99.90
12761;DHT22;6444;49.742;6.114;2024-03-02T04:53:22;7.70;99.90
12761;DHT22;6444;49.742;6.114;2024-03-02T04:55:48;7.70;99.90
12761;DHT22;6444;49.742;6.114;2024-03-02T04:58:18;8.30;99.90
12761;DHT22;6444;49.742;6.114;2024-03-02T05:00:45;8.20;99.90
12761;DHT22;6444;49.742;6.114;2024-03-02T05:03:12;7.90;99.90
12761;DHT22;6444;49.742;6.114;2024-03-02T05:05:39;8.10;99.90
12761;DHT22;6444;49.742;6.114;2024-03-02T05:08:06;8.10;99.90
12761;DHT22;6444;49.742;6.114;2024-03-02T05:10:32;8.00;99.90
12761;DHT22;6444;49.742;6.114;2024-03-02T05:12:59;8.00;99.90
12761;DHT22;6444;49.742;6.114;2024-03-02T05:15:26;8.00;99.90
12761;DHT22;6444;49.742;6.114;2024-03-02T05:17:52;8.10;99.90
12761;DHT22;6444;49.742;6.114;2024-03-02T05:20:19;8.40;99.90
12761;DHT22;6444;49.742;6.114;2024-03-02T05:22:46;8.70;99.90
12761;DHT22;6444;49.742;6.114;2024-03-02T05:25:12;8.40;99.90
12761;DHT22;6444;49.742;6.114;2024-03-02T05:27:39;8.30;99.90
12761;DHT22;6444;49.742;6.114;2024-03-02T05:30:06;8.70;99.90
12761;DHT22;6444;49.742;6.114;2024-03-02T05:32:33;8.80;99.90
12761;DHT22;6444;49.742;6.114;2024-03-02T05:35:01;8.20;99.90
12761;DHT22;6444;49.742;6.114;2024-03-02T05:37:28;7.60;99.90
12761;DHT22;6444;49.742;6.114;2024-03-02T05:39:55;7.50;99.90
12761;DHT22;6444;49.742;6.114;2024-03-02T05:42:21;7.50;99.90
12761;DHT22;6444;49.742;6.114;2024-03-02T05:44:49;7.60;99.90
12761;DHT22;6444;49.742;6.114;2024-03-02T05:47:15;7.60;99.90
12761;DHT22;6444;49.742;6.114;2024-03-02T05:49:42;7.70;99.90
12761;DHT22;6444;49.742;6.114;2024-03-02T05:52:09;7.30;99.90
12761;DHT22;6444;49.742;6.114;2024-03-02T05:54:36;7.20;99.90
12761;DHT22;6444;49.742;6.114;2024-03-02T05:57:02;7.30;99.90
12761;DHT22;6444;49.742;6.114;2024-03-02T05:59:29;7.50;99.90
12761;DHT22;6444;49.742;6.114;2024-03-02T06:01:57;7.70;99.90
12761;DHT22;6444;49.742;6.114;2024-03-02T06:04:23;7.70;99.90
12761;DHT22;6444;49.742;6.114;2024-03-02T06:06:50;7.70;99.90
12761;DHT22;6444;49.742;6.114;2024-03-02T06:09:16;7.70;99.90
12761;DHT22;6444;49.742;6.114;2024-03-02T06:11:43;7.90;99.90
12761;DHT22;6444;49.742;6.114;2024-03-02T06:14:10;8.10;99.90
12761;DHT22;6444;49.742;6.114;2024-03-02T06:16:37;7.90;99.90
12761;DHT22;6444;49.742;6.114;2024-03-02T06:19:04;7.80;99.90
12761;DHT22;6444;49.742;6.114;2024-03-02T06:21:30;8.20;99.90
12761;DHT22;6444;49.742;6.114;2024-03-02T06:23:57;8.30;99.90
12761;DHT22;6444;49.742;6.114;2024-03-02T06:26:24;8.10;99.90
12761;DHT22;6444;49.742;6.114;2024-03-02T06:28:51;8.10;99.90
12761;DHT22;6444;49.742;6.114;2024-03-02T06:31:18;7.90;99.90
12761;DHT22;6444;49.742;6.114;2024-03-02T06:33:44;8.00;99.90
12761;DHT22;6444;49.742;6.114;2024-03-02T06:36:11;8.30;99.90
12761;DHT22;6444;49.742;6.114;2024-03-02T06:38:38;8.70;99.90
12761;DHT22;6444;49.742;6.114;2024-03-02T06:41:04;8.30;99.90
12761;DHT22;6444;49.742;6.114;2024-03-02T06:43:31;8.30;99.90
12761;DHT22;6444;49.742;6.114;2024-03-02T06:45:57;8.90;99.90
12761;DHT22;6444;49.742;6.114;2024-03-02T06:48:24;8.70;99.90
12761;DHT22;6444;49.742;6.114;2024-03-02T06:50:51;8.60;99.90
12761;DHT22;6444;49.742;6.114;2024-03-02T06:53:17;8.40;99.90
12761;DHT22;6444;49.742;6.114;2024-03-02T06:55:44;8.10;99.90
12761;DHT22;6444;49.742;6.114;2024-03-02T06:58:14;8.10;99.90
12761;DHT22;6444;49.742;6.114;2024-03-02T07:00:41;8.10;99.90
12761;DHT22;6444;49.742;6.114;2024-03-02T07:03:08;8.20;99.90
12761;DHT22;6444;49.742;6.114;2024-03-02T07:05:35;8.20;99.90
12761;DHT22;6444;49.742;6.114;2024-03-02T07:08:02;7.90;99.90
12761;DHT22;6444;49.742;6.114;2024-03-02T07:10:28;8.40;99.90
12761;DHT22;6444;49.742;6.114;2024-03-02T07:12:55;8.70;99.90
12761;DHT22;6444;49.742;6.114;2024-03-02T07:15:21;8.60;99.90
12761;DHT22;6444;49.742;6.114;2024-03-02T07:17:52;8.80;99.90
12761;DHT22;6444;49.742;6.114;2024-03-02T07:20:19;8.70;99.90
12761;DHT22;6444;49.742;6.114;2024-03-02T07:22:46;9.40;99.90
12761;DHT22;6444;49.742;6.114;2024-03-02T07:25:13;9.60;99.90
12761;DHT22;6444;49.742;6.114;2024-03-02T07:27:39;9.60;99.90
12761;DHT22;6444;49.742;6.114;2024-03-02T07:30:06;9.30;99.90
12761;DHT22;6444;49.742;6.114;2024-03-02T07:32:33;9.60;99.90
12761;DHT22;6444;49.742;6.114;2024-03-02T07:35:00;9.60;99.90
12761;DHT22;6444;49.742;6.114;2024-03-02T07:37:27;9.40;99.90
12761;DHT22;6444;49.742;6.114;2024-03-02T07:39:53;9.50;99.90
12761;DHT22;6444;49.742;6.114;2024-03-02T07:42:21;8.50;99.90
12761;DHT22;6444;49.742;6.114;2024-03-02T07:44:47;8.50;99.90
12761;DHT22;6444;49.742;6.114;2024-03-02T07:47:14;8.30;99.90
12761;DHT22;6444;49.742;6.114;2024-03-02T07:49:40;8.00;99.90
12761;DHT22;6444;49.742;6.114;2024-03-02T07:52:08;8.30;99.90
12761;DHT22;6444;49.742;6.114;2024-03-02T07:54:36;8.20;99.90
12761;DHT22;6444;49.742;6.114;2024-03-02T07:57:02;8.50;99.90
12761;DHT22;6444;49.742;6.114;2024-03-02T07:59:30;9.20;99.90
12761;DHT22;6444;49.742;6.114;2024-03-02T08:01:56;9.20;99.90
12761;DHT22;6444;49.742;6.114;2024-03-02T08:04:24;10.00;99.90
12761;DHT22;6444;49.742;6.114;2024-03-02T08:06:50;10.00;99.90
12761;DHT22;6444;49.742;6.114;2024-03-02T08:09:17;10.00;99.90
12761;DHT22;6444;49.742;6.114;2024-03-02T08:11:44;10.00;99.90
12761;DHT22;6444;49.742;6.114;2024-03-02T08:14:10;10.10;99.90
12761;DHT22;6444;49.742;6.114;2024-03-02T08:16:37;10.20;99.90
12761;DHT22;6444;49.742;6.114;2024-03-02T08:19:04;11.00;99.90
12761;DHT22;6444;49.742;6.114;2024-03-02T08:21:31;10.90;99.90
12761;DHT22;6444;49.742;6.114;2024-03-02T08:23:58;10.50;99.90
12761;DHT22;6444;49.742;6.114;2024-03-02T08:26:24;10.50;99.90
12761;DHT22;6444;49.742;6.114;2024-03-02T08:28:52;10.30;99.90
12761;DHT22;6444;49.742;6.114;2024-03-02T08:31:18;10.30;99.90
12761;DHT22;6444;49.742;6.114;2024-03-02T08:33:45;10.00;99.90
12761;DHT22;6444;49.742;6.114;2024-03-02T08:36:12;10.00;99.90
12761;DHT22;6444;49.742;6.114;2024-03-02T08:38:38;10.30;99.90
12761;DHT22;6444;49.742;6.114;2024-03-02T08:41:05;10.30;99.90
12761;DHT22;6444;49.742;6.114;2024-03-02T08:43:31;10.30;99.90
12761;DHT22;6444;49.742;6.114;2024-03-02T08:45:59;10.40;99.90
12761;DHT22;6444;49.742;6.114;2024-03-02T08:48:25;10.40;99.90
12761;DHT22;6444;49.742;6.114;2024-03-02T08:50:55;10.90;99.90
12761;DHT22;6444;49.742;6.114;2024-03-02T08:53:22;11.50;99.90
12761;DHT22;6444;49.742;6.114;2024-03-02T08:55:48;11.50;99.90
12761;DHT22;6444;49.742;6.114;2024-03-02T08:58:16;10.80;99.90
12761;DHT22;6444;49.742;6.114;2024-03-02T09:00:42;10.80;99.90
12761;DHT22;6444;49.742;6.114;2024-03-02T09:03:11;10.30;99.90
12761;DHT22;6444;49.742;6.114;2024-03-02T09:05:39;10.00;99.90
12761;DHT22;6444;49.742;6.114;2024-03-02T09:08:06;10.00;99.90
12761;DHT22;6444;49.742;6.114;2024-03-02T09:10:32;10.00;99.90
12761;DHT22;6444;49.742;6.114;2024-03-02T09:12:59;10.00;99.90
12761;DHT22;6444;49.742;6.114;2024-03-02T09:15:26;10.10;99.90
12761;DHT22;6444;49.742;6.114;2024-03-02T09:17:52;10.30;99.90
12761;DHT22;6444;49.742;6.114;2024-03-02T09:20:19;10.00;99.90
12761;DHT22;6444;49.742;6.114;2024-03-02T09:22:46;10.10;99.90
12761;DHT22;6444;49.742;6.114;2024-03-02T09:25:13;10.00;99.90
12761;DHT22;6444;49.742;6.114;2024-03-02T09:27:40;10.20;99.90
12761;DHT22;6444;49.742;6.114;2024-03-02T09:30:10;10.20;99.90
12761;DHT22;6444;49.742;6.114;2024-03-02T09:32:37;10.20;99.90
12761;DHT22;6444;49.742;6.114;2024-03-02T09:35:03;10.10;99.90
12761;DHT22;6444;49.742;6.114;2024-03-02T09:37:31;10.10;99.90
12761;DHT22;6444;49.742;6.114;2024-03-02T09:39:57;10.00;99.90
12761;DHT22;6444;49.742;6.114;2024-03-02T09:42:24;9.80;99.90
12761;DHT22;6444;49.742;6.114;2024-03-02T09:44:51;10.30;99.90
12761;DHT22;6444;49.742;6.114;2024-03-02T09:47:18;10.90;99.90
12761;DHT22;6444;49.742;6.114;2024-03-02T09:49:44;11.10;99.90
12761;DHT22;6444;49.742;6.114;2024-03-02T09:52:11;11.60;99.90
12761;DHT22;6444;49.742;6.114;2024-03-02T09:54:37;11.00;99.90
12761;DHT22;6444;49.742;6.114;2024-03-02T09:57:04;10.90;99.90
12761;DHT22;6444;49.742;6.114;2024-03-02T09:59:31;11.00;99.90
12761;DHT22;6444;49.742;6.114;2024-03-02T10:02:01;11.10;99.90
12761;DHT22;6444;49.742;6.114;2024-03-02T10:04:28;11.70;99.90
12761;DHT22;6444;49.742;6.114;2024-03-02T10:07:12;11.70;99.90
12761;DHT22;6444;49.742;6.114;2024-03-02T10:09:40;11.40;99.90
12761;DHT22;6444;49.742;6.114;2024-03-02T10:12:06;11.40;99.90
12761;DHT22;6444;49.742;6.114;2024-03-02T10:14:33;11.30;99.90
12761;DHT22;6444;49.742;6.114;2024-03-02T10:17:02;11.30;99.90
12761;DHT22;6444;49.742;6.114;2024-03-02T10:19:29;10.80;99.90
12761;DHT22;6444;49.742;6.114;2024-03-02T10:21:55;10.90;99.90
12761;DHT22;6444;49.742;6.114;2024-03-02T10:24:22;11.30;99.90
12761;DHT22;6444;49.742;6.114;2024-03-02T10:26:49;11.50;99.90
12761;DHT22;6444;49.742;6.114;2024-03-02T10:29:15;11.20;99.90
12761;DHT22;6444;49.742;6.114;2024-03-02T10:31:43;11.40;99.90
12761;DHT22;6444;49.742;6.114;2024-03-02T10:34:09;11.60;99.90
12761;DHT22;6444;49.742;6.114;2024-03-02T10:36:36;11.50;99.90
12761;DHT22;6444;49.742;6.114;2024-03-02T10:39:03;11.50;99.90
12761;DHT22;6444;49.742;6.114;2024-03-02T10:41:31;11.60;99.90
12761;DHT22;6444;49.742;6.114;2024-03-02T10:43:56;11.90;99.90
12761;DHT22;6444;49.742;6.114;2024-03-02T10:46:23;12.30;99.90
12761;DHT22;6444;49.742;6.114;2024-03-02T10:48:50;12.30;99.90
12761;DHT22;6444;49.742;6.114;2024-03-02T10:51:16;12.70;99.90
12761;DHT22;6444;49.742;6.114;2024-03-02T10:53:43;12.50;99.90
12761;DHT22;6444;49.742;6.114;2024-03-02T10:56:10;12.00;99.90
12761;DHT22;6444;49.742;6.114;2024-03-02T10:58:36;11.90;99.90
12761;DHT22;6444;49.742;6.114;2024-03-02T11:01:03;11.80;99.90
12761;DHT22;6444;49.742;6.114;2024-03-02T11:03:31;11.70;99.90
12761;DHT22;6444;49.742;6.114;2024-03-02T11:05:57;11.70;99.90
12761;DHT22;6444;49.742;6.114;2024-03-02T11:08:23;11.50;99.90
12761;DHT22;6444;49.742;6.114;2024-03-02T11:10:51;11.70;99.90
12761;DHT22;6444;49.742;6.114;2024-03-02T11:13:33;12.40;99.90
12761;DHT22;6444;49.742;6.114;2024-03-02T11:15:59;12.40;99.90
12761;DHT22;6444;49.742;6.114;2024-03-02T11:18:25;12.50;99.90
12761;DHT22;6444;49.742;6.114;2024-03-02T11:20:52;12.80;99.90
12761;DHT22;6444;49.742;6.114;2024-03-02T11:23:19;13.00;99.90
12761;DHT22;6444;49.742;6.114;2024-03-02T11:25:45;13.00;99.90
12761;DHT22;6444;49.742;6.114;2024-03-02T11:28:12;12.70;99.90
12761;DHT22;6444;49.742;6.114;2024-03-02T11:33:12;12.10;99.90
12761;DHT22;6444;49.742;6.114;2024-03-02T11:35:41;11.80;99.90
12761;DHT22;6444;49.742;6.114;2024-03-02T11:38:08;11.40;99.90
12761;DHT22;6444;49.742;6.114;2024-03-02T11:40:34;12.40;99.90
12761;DHT22;6444;49.742;6.114;2024-03-02T11:43:02;13.00;99.90
12761;DHT22;6444;49.742;6.114;2024-03-02T11:45:28;13.00;99.90
12761;DHT22;6444;49.742;6.114;2024-03-02T11:47:58;12.90;99.90
12761;DHT22;6444;49.742;6.114;2024-03-02T11:50:33;12.50;99.90
12761;DHT22;6444;49.742;6.114;2024-03-02T11:52:57;12.60;99.90
12761;DHT22;6444;49.742;6.114;2024-03-02T11:55:25;13.00;99.90
12761;DHT22;6444;49.742;6.114;2024-03-02T11:57:55;13.70;99.90
12761;DHT22;6444;49.742;6.114;2024-03-02T12:00:18;13.70;99.90
12761;DHT22;6444;49.742;6.114;2024-03-02T12:02:45;13.70;99.90
12761;DHT22;6444;49.742;6.114;2024-03-02T12:05:11;13.80;99.90
12761;DHT22;6444;49.742;6.114;2024-03-02T12:07:38;14.00;99.90
12761;DHT22;6444;49.742;6.114;2024-03-02T12:10:04;14.40;99.90
12761;DHT22;6444;49.742;6.114;2024-03-02T12:12:31;14.60;99.90
12761;DHT22;6444;49.742;6.114;2024-03-02T12:14:57;14.40;99.90
12761;DHT22;6444;49.742;6.114;2024-03-02T12:17:24;13.90;99.90
12761;DHT22;6444;49.742;6.114;2024-03-02T12:19:51;13.50;99.90
12761;DHT22;6444;49.742;6.114;2024-03-02T12:22:17;13.40;99.90
12761;DHT22;6444;49.742;6.114;2024-03-02T12:24:44;13.10;99.90
12761;DHT22;6444;49.742;6.114;2024-03-02T12:27:14;13.00;99.90
12761;DHT22;6444;49.742;6.114;2024-03-02T12:29:40;13.00;99.90
12761;DHT22;6444;49.742;6.114;2024-03-02T12:32:07;13.20;99.90
12761;DHT22;6444;49.742;6.114;2024-03-02T12:34:33;13.20;99.90
12761;DHT22;6444;49.742;6.114;2024-03-02T12:37:00;13.20;99.90
12761;DHT22;6444;49.742;6.114;2024-03-02T12:39:26;13.30;99.90
12761;DHT22;6444;49.742;6.114;2024-03-02T12:41:53;13.50;99.90
12761;DHT22;6444;49.742;6.114;2024-03-02T12:44:20;13.40;99.90
12761;DHT22;6444;49.742;6.114;2024-03-02T12:46:47;13.90;99.90
12761;DHT22;6444;49.742;6.114;2024-03-02T12:49:14;13.90;99.90
12761;DHT22;6444;49.742;6.114;2024-03-02T12:51:40;13.90;99.90
12761;DHT22;6444;49.742;6.114;2024-03-02T12:54:07;13.70;99.90
12761;DHT22;6444;49.742;6.114;2024-03-02T12:56:34;13.60;99.90
12761;DHT22;6444;49.742;6.114;2024-03-02T12:59:01;13.70;99.90
12761;DHT22;6444;49.742;6.114;2024-03-02T13:01:28;13.60;99.90
12761;DHT22;6444;49.742;6.114;2024-03-02T13:03:54;13.80;99.90
12761;DHT22;6444;49.742;6.114;2024-03-02T13:06:21;13.80;99.90
12761;DHT22;6444;49.742;6.114;2024-03-02T13:08:48;13.60;99.90
12761;DHT22;6444;49.742;6.114;2024-03-02T13:11:15;13.80;99.90
12761;DHT22;6444;49.742;6.114;2024-03-02T13:13:42;13.80;99.90
12761;DHT22;6444;49.742;6.114;2024-03-02T13:16:11;13.80;99.90
12761;DHT22;6444;49.742;6.114;2024-03-02T13:18:41;13.50;99.90
12761;DHT22;6444;49.742;6.114;2024-03-02T13:21:07;13.40;99.90
12761;DHT22;6444;49.742;6.114;2024-03-02T13:23:34;13.30;99.90
12761;DHT22;6444;49.742;6.114;2024-03-02T13:26:00;13.40;99.90
12761;DHT22;6444;49.742;6.114;2024-03-02T13:28:28;13.40;99.90
12761;DHT22;6444;49.742;6.114;2024-03-02T13:30:54;13.40;99.90
12761;DHT22;6444;49.742;6.114;2024-03-02T13:33:21;13.50;99.90
12761;DHT22;6444;49.742;6.114;2024-03-02T13:35:51;13.60;99.90
12761;DHT22;6444;49.742;6.114;2024-03-02T13:38:21;13.60;99.90
12761;DHT22;6444;49.742;6.114;2024-03-02T13:40:44;13.60;99.90
12761;DHT22;6444;49.742;6.114;2024-03-02T13:43:11;13.40;99.90
12761;DHT22;6444;49.742;6.114;2024-03-02T13:45:38;13.80;99.90
12761;DHT22;6444;49.742;6.114;2024-03-02T13:48:05;13.80;99.90
12761;DHT22;6444;49.742;6.114;2024-03-02T13:50:32;13.90;99.90
12761;DHT22;6444;49.742;6.114;2024-03-02T13:52:58;14.10;99.90
12761;DHT22;6444;49.742;6.114;2024-03-02T13:55:25;14.00;99.90
12761;DHT22;6444;49.742;6.114;2024-03-02T13:57:52;13.90;99.90
12761;DHT22;6444;49.742;6.114;2024-03-02T14:00:19;14.30;99.90
12761;DHT22;6444;49.742;6.114;2024-03-02T14:02:46;14.30;99.90
12761;DHT22;6444;49.742;6.114;2024-03-02T14:05:12;14.40;99.90
12761;DHT22;6444;49.742;6.114;2024-03-02T14:07:40;14.20;99.90
12761;DHT22;6444;49.742;6.114;2024-03-02T14:10:06;14.20;99.90
12761;DHT22;6444;49.742;6.114;2024-03-02T14:12:33;13.90;99.90
12761;DHT22;6444;49.742;6.114;2024-03-02T14:15:00;14.30;99.90
12761;DHT22;6444;49.742;6.114;2024-03-02T14:17:26;14.70;99.90
12761;DHT22;6444;49.742;6.114;2024-03-02T14:19:53;14.80;99.90
12761;DHT22;6444;49.742;6.114;2024-03-02T14:22:20;13.50;99.90
12761;DHT22;6444;49.742;6.114;2024-03-02T14:24:47;13.40;99.90
12761;DHT22;6444;49.742;6.114;2024-03-02T14:27:14;13.20;99.90
12761;DHT22;6444;49.742;6.114;2024-03-02T14:29:40;13.20;99.90
12761;DHT22;6444;49.742;6.114;2024-03-02T14:32:08;13.20;99.90
12761;DHT22;6444;49.742;6.114;2024-03-02T14:34:34;13.20;99.90
12761;DHT22;6444;49.742;6.114;2024-03-02T14:37:01;13.40;99.90
12761;DHT22;6444;49.742;6.114;2024-03-02T14:39:27;13.40;99.90
12761;DHT22;6444;49.742;6.114;2024-03-02T14:41:54;13.20;99.90
12761;DHT22;6444;49.742;6.114;2024-03-02T14:44:21;13.10;99.90
12761;DHT22;6444;49.742;6.114;2024-03-02T14:46:48;13.00;99.90
12761;DHT22;6444;49.742;6.114;2024-03-02T14:49:15;13.10;99.90
12761;DHT22;6444;49.742;6.114;2024-03-02T14:51:41;13.20;99.90
12761;DHT22;6444;49.742;6.114;2024-03-02T14:54:08;13.10;99.90
12761;DHT22;6444;49.742;6.114;2024-03-02T14:56:35;13.50;99.90
12761;DHT22;6444;49.742;6.114;2024-03-02T14:59:02;13.50;99.90
12761;DHT22;6444;49.742;6.114;2024-03-02T15:01:29;13.40;99.90
12761;DHT22;6444;49.742;6.114;2024-03-02T15:03:55;13.30;99.90
12761;DHT22;6444;49.742;6.114;2024-03-02T15:06:22;13.40;99.90
12761;DHT22;6444;49.742;6.114;2024-03-02T15:08:49;13.50;99.90
12761;DHT22;6444;49.742;6.114;2024-03-02T15:11:15;13.60;99.90
12761;DHT22;6444;49.742;6.114;2024-03-02T15:13:42;14.00;99.90
12761;DHT22;6444;49.742;6.114;2024-03-02T15:16:08;13.90;99.90
12761;DHT22;6444;49.742;6.114;2024-03-02T15:18:36;13.60;99.90
12761;DHT22;6444;49.742;6.114;2024-03-02T15:21:03;13.60;99.90
12761;DHT22;6444;49.742;6.114;2024-03-02T15:23:29;13.50;99.90
12761;DHT22;6444;49.742;6.114;2024-03-02T15:25:56;13.70;99.90
12761;DHT22;6444;49.742;6.114;2024-03-02T15:28:22;13.50;99.90
12761;DHT22;6444;49.742;6.114;2024-03-02T15:30:49;13.30;99.90
12761;DHT22;6444;49.742;6.114;2024-03-02T15:33:16;13.60;99.90
12761;DHT22;6444;49.742;6.114;2024-03-02T15:35:43;13.50;99.90
12761;DHT22;6444;49.742;6.114;2024-03-02T15:38:10;13.60;99.90
12761;DHT22;6444;49.742;6.114;2024-03-02T15:40:36;13.50;99.90
12761;DHT22;6444;49.742;6.114;2024-03-02T15:43:03;13.70;99.90
12761;DHT22;6444;49.742;6.114;2024-03-02T15:45:30;13.70;99.90
12761;DHT22;6444;49.742;6.114;2024-03-02T15:47:56;13.80;99.90
12761;DHT22;6444;49.742;6.114;2024-03-02T15:50:23;14.10;99.90
12761;DHT22;6444;49.742;6.114;2024-03-02T15:52:49;13.70;99.90
12761;DHT22;6444;49.742;6.114;2024-03-02T15:55:16;13.70;99.90
12761;DHT22;6444;49.742;6.114;2024-03-02T15:57:43;13.90;99.90